Time;durP1;ratioP1;P1;durP2;ratioP2;P2;SDS_P1;SDS_P2;PMS_P1;PMS_P2;Temp;Humidity;BMP_temperature;BMP_pressure;BME280_temperature;BME280_humidity;BME280_pressure;Samples;Min_cycle;Max_cycle;Signal;HPM_P1;HPM_P2
2021/05/08 00:01:50;;;;;;;;;;;;;;;;;;5083463;28;31805;-76
2021/05/08 00:04:16;;;;;;;;;;;;;;;;;;5082665;28;32284;-74
2021/05/08 00:06:41;;;;;;;;;;;;;;;;;;5082662;28;32781;-76
2021/05/08 00:09:07;;;;;;;;;;;;;;;;;;5083529;28;33164;-74
2021/05/08 00:11:32;;;;;;;;;;;;;;;;;;5083573;28;32408;-76
2021/05/08 00:13:58;;;;;;;;;;;;;;;;;;5083401;28;32376;-75
2021/05/08 00:16:23;;;;;;;;;;;;;;;;;;5083502;28;32719;-75
2021/05/08 00:18:49;;;;;;;;;;;;;;;;;;5083311;28;33106;-74
2021/05/08 00:21:14;;;;;;;;;;;;;;;;;;5082147;28;31609;-73
2021/05/08 00:23:40;;;;;;;;;;;;;;;;;;5082259;28;32253;-75
2021/05/08 00:26:05;;;;;;;;;;;;;;;;;;5083332;28;32991;-77
2021/05/08 00:28:31;;;;;;;;;;;;;;;;;;5082321;28;33168;-77
2021/05/08 00:30:56;;;;;;;;;;;;;;;;;;5082447;28;31596;-77
2021/05/08 00:33:22;;;;;;;;;;;;;;;;;;5082512;28;32383;-77
2021/05/08 00:35:47;;;;;;;;;;;;;;;;;;5082562;28;32900;-78
2021/05/08 00:38:13;;;;;;;;;;;;;;;;;;5082362;28;32581;-78
2021/05/08 00:40:38;;;;;;;;;;;;;;;;;;5082713;28;32304;-78
2021/05/08 00:43:04;;;;;;;;;;;;;;;;;;5082574;28;32758;-78
2021/05/08 00:45:29;;;;;;;;;;;;;;;;;;5080943;28;31426;-77
2021/05/08 00:47:55;;;;;;;;;;;;;;;;;;5081782;28;32413;-77
2021/05/08 00:50:20;;;;;;;;;;;;;;;;;;5081808;28;32774;-79
2021/05/08 00:52:46;;;;;;;;;;;;;;;;;;5081894;28;32256;-79
2021/05/08 00:55:11;;;;;;;;;;;;;;;;;;5080846;28;31011;-78
2021/05/08 00:57:37;;;;;;;;;;;;;;;;;;5082065;28;33133;-77
2021/05/08 01:00:03;;;;;;;;;;;;;;;;;;5080121;28;31833;-78
2021/05/08 01:02:30;;;;;;;;;;;;;;;;;;5080490;28;30764;-77
2021/05/08 01:04:56;;;;;;;;;;;;;;;;;;5081562;28;32678;-78
2021/05/08 01:07:22;;;;;;;;;;;;;;;;;;5081259;28;31183;-74
2021/05/08 01:09:47;;;;;;;;;;;;;;;;;;5082561;28;31938;-74
2021/05/08 01:12:13;;;;;;;;;;;;;;;;;;5097852;28;30887;-75
2021/05/08 01:14:38;;;;;;;;;;;;;;;;;;5082644;28;33670;-73
2021/05/08 01:17:04;;;;;;;;;;;;;;;;;;5080684;28;32416;-73
2021/05/08 01:19:29;;;;;;;;;;;;;;;;;;5081041;28;31808;-77
2021/05/08 01:21:55;;;;;;;;;;;;;;;;;;5082305;28;32268;-76
2021/05/08 01:24:21;;;;;;;;;;;;;;;;;;5080499;28;32269;-77
2021/05/08 01:26:47;;;;;;;;;;;;;;;;;;5080373;28;32095;-73
2021/05/08 01:29:12;;;;;;;;;;;;;;;;;;5080597;28;30294;-73
2021/05/08 01:31:39;;;;;;;;;;;;;;;;;;5080749;28;31731;-73
2021/05/08 01:34:04;;;;;;;;;;;;;;;;;;5080604;28;31592;-73
2021/05/08 01:36:32;;;;;;;;;;;;;;;;;;5081762;28;32307;-73
2021/05/08 01:38:58;;;;;;;;;;;;;;;;;;5080676;28;30727;-73
2021/05/08 01:41:23;;;;;;;;;;;;;;;;;;5082183;28;32293;-74
2021/05/08 01:43:49;;;;;;;;;;;;;;;;;;5097980;28;33834;-74
2021/05/08 01:46:14;;;;;;;;;;;;;;;;;;5081009;28;32658;-73
2021/05/08 01:48:41;;;;;;;;;;;;;;;;;;5081633;28;32792;-73
2021/05/08 01:51:07;;;;;;;;;;;;;;;;;;5082122;28;32442;-74
2021/05/08 01:53:32;;;;;;;;;;;;;;;;;;5080118;28;31575;-73
2021/05/08 01:55:58;;;;;;;;;;;;;;;;;;5079804;28;31314;-76
2021/05/08 01:58:25;;;;;;;;;;;;;;;;;;5081669;28;31973;-78
2021/05/08 02:00:56;;;;;;;;;;;;;;;;;;5079602;28;33574;-78
2021/05/08 02:03:25;;;;;;;;;;;;;;;;;;5097153;28;31611;-73
2021/05/08 02:05:51;;;;;;;;;;;;;;;;;;5080096;28;32370;-73
2021/05/08 02:08:27;;;;;;;;;;;;;;;;;;5080133;28;31497;-73
2021/05/08 02:10:53;;;;;;;;;;;;;;;;;;5080194;28;32275;-74
2021/05/08 02:13:18;;;;;;;;;;;;;;;;;;5081885;28;32713;-73
2021/05/08 02:15:45;;;;;;;;;;;;;;;;;;5079945;28;32419;-74
2021/05/08 02:18:11;;;;;;;;;;;;;;;;;;5081824;28;31928;-74
2021/05/08 02:20:37;;;;;;;;;;;;;;;;;;5081879;28;33447;-75
2021/05/08 02:23:04;;;;;;;;;;;;;;;;;;5085370;28;32867;-74
2021/05/08 02:25:29;;;;;;;;;;;;;;;;;;5084727;28;32695;-73
2021/05/08 02:27:55;;;;;;;;;;;;;;;;;;5084372;28;32026;-74
2021/05/08 02:30:20;;;;;;;;;;;;;;;;;;5085133;28;32945;-73
2021/05/08 02:32:46;;;;;;;;;;;;;;;;;;5082839;28;34884;-75
2021/05/08 02:35:11;;;;;;;;;;;;;;;;;;5083855;28;30913;-76
2021/05/08 02:37:38;;;;;;;;;;;;;;;;;;5085993;28;32003;-76
2021/05/08 02:40:03;;;;;;;;;;;;;;;;;;5084660;28;32851;-78
2021/05/08 02:42:29;;;;;;;;;;;;;;;;;;5083741;28;31458;-78
2021/05/08 02:44:55;;;;;;;;;;;;;;;;;;5083541;28;31059;-78
2021/05/08 02:47:20;;;;;;;;;;;;;;;;;;5083147;28;31952;-78
2021/05/08 02:49:50;;;;;;;;;;;;;;;;;;5082886;28;30755;-77
2021/05/08 02:52:16;;;;;;;;;;;;;;;;;;5082524;28;32371;-77
2021/05/08 02:54:43;;;;;;;;;;;;;;;;;;5083314;28;33535;-77
2021/05/08 02:57:08;;;;;;;;;;;;;;;;;;5083117;28;31947;-76
2021/05/08 02:59:34;;;;;;;;;;;;;;;;;;5083113;28;30976;-75
2021/05/08 03:02:00;;;;;;;;;;;;;;;;;;5084550;28;32866;-77
2021/05/08 03:04:25;;;;;;;;;;;;;;;;;;5084857;28;32521;-76
2021/05/08 03:06:51;;;;;;;;;;;;;;;;;;5083509;28;32805;-75
2021/05/08 03:09:16;;;;;;;;;;;;;;;;;;5082191;28;31710;-75
2021/05/08 03:11:43;;;;;;;;;;;;;;;;;;5084428;28;32990;-77
2021/05/08 03:14:08;;;;;;;;;;;;;;;;;;5082261;28;33888;-78
2021/05/08 03:16:34;;;;;;;;;;;;;;;;;;5082277;28;30296;-78
2021/05/08 03:19:00;;;;;;;;;;;;;;;;;;5082381;28;32279;-78
2021/05/08 03:21:25;;;;;;;;;;;;;;;;;;5083161;28;33929;-78
2021/05/08 03:23:51;;;;;;;;;;;;;;;;;;5082483;28;32411;-78
2021/05/08 03:26:16;;;;;;;;;;;;;;;;;;5084519;28;32000;-78
2021/05/08 03:28:42;;;;;;;;;;;;;;;;;;5083119;28;33285;-78
2021/05/08 03:31:07;;;;;;;;;;;;;;;;;;5082379;28;31641;-77
2021/05/08 03:33:33;;;;;;;;;;;;;;;;;;5080549;28;32385;-78
2021/05/08 03:35:58;;;;;;;;;;;;;;;;;;5081931;28;30245;-77
2021/05/08 03:38:25;;;;;;;;;;;;;;;;;;5082300;28;30935;-78
2021/05/08 03:40:51;;;;;;;;;;;;;;;;;;5083506;28;32975;-78
2021/05/08 03:43:16;;;;;;;;;;;;;;;;;;5099724;28;32486;-77
2021/05/08 03:45:42;;;;;;;;;;;;;;;;;;5083995;28;31827;-77
2021/05/08 03:48:07;;;;;;;;;;;;;;;;;;5082517;28;32800;-77
2021/05/08 03:50:33;;;;;;;;;;;;;;;;;;5083900;28;32872;-77
2021/05/08 03:52:58;;;;;;;;;;;;;;;;;;5083875;28;32355;-77
2021/05/08 03:55:24;;;;;;;;;;;;;;;;;;5098752;28;31884;-78
2021/05/08 03:57:49;;;;;;;;;;;;;;;;;;5082944;28;32775;-78
2021/05/08 04:00:15;;;;;;;;;;;;;;;;;;5082332;28;32857;-77
2021/05/08 04:02:42;;;;;;;;;;;;;;;;;;5083351;28;32626;-77
2021/05/08 04:05:07;;;;;;;;;;;;;;;;;;5082511;28;33762;-77
2021/05/08 04:07:33;;;;;;;;;;;;;;;;;;5082511;28;33277;-77
2021/05/08 04:09:58;;;;;;;;;;;;;;;;;;5082643;28;32672;-73
2021/05/08 04:12:24;;;;;;;;;;;;;;;;;;5083158;28;32498;-73
2021/05/08 04:14:49;;;;;;;;;;;;;;;;;;5082382;28;32421;-76
2021/05/08 04:17:15;;;;;;;;;;;;;;;;;;5083701;28;33298;-74
2021/05/08 04:19:40;;;;;;;;;;;;;;;;;;5083085;28;32820;-74
2021/05/08 04:22:06;;;;;;;;;;;;;;;;;;5082428;28;33427;-74
2021/05/08 04:24:32;;;;;;;;;;;;;;;;;;5081032;28;30639;-74
2021/05/08 04:26:58;;;;;;;;;;;;;;;;;;5082568;28;32053;-74
2021/05/08 04:29:23;;;;;;;;;;;;;;;;;;5083214;28;32820;-74
2021/05/08 04:31:49;;;;;;;;;;;;;;;;;;5083278;28;32737;-74
2021/05/08 04:34:14;;;;;;;;;;;;;;;;;;5082359;28;32730;-74
2021/05/08 04:36:40;;;;;;;;;;;;;;;;;;5083078;28;32253;-74
2021/05/08 04:39:05;;;;;;;;;;;;;;;;;;5082532;28;32788;-73
2021/05/08 04:41:31;;;;;;;;;;;;;;;;;;5081927;28;32641;-74
2021/05/08 04:43:56;;;;;;;;;;;;;;;;;;5082732;28;31566;-73
2021/05/08 04:46:25;;;;;;;;;;;;;;;;;;5083049;28;33260;-73
2021/05/08 04:48:53;;;;;;;;;;;;;;;;;;5082739;28;32934;-72
2021/05/08 04:51:19;;;;;;;;;;;;;;;;;;5082891;28;34401;-74
2021/05/08 04:53:45;;;;;;;;;;;;;;;;;;5082921;28;32394;-73
2021/05/08 04:56:10;;;;;;;;;;;;;;;;;;5082074;28;32352;-73
2021/05/08 04:58:35;;;;;;;;;;;;;;;;;;5081685;28;33755;-73
2021/05/08 05:01:01;;;;;;;;;;;;;;;;;;5080727;28;32648;-75
2021/05/08 05:03:26;;;;;;;;;;;;;;;;;;5081611;28;32741;-74
2021/05/08 05:05:52;;;;;;;;;;;;;;;;;;5097170;28;32298;-78
2021/05/08 05:08:17;;;;;;;;;;;;;;;;;;5095666;28;33765;-77
2021/05/08 05:10:43;;;;;;;;;;;;;;;;;;5080336;28;32616;-77
2021/05/08 05:13:08;;;;;;;;;;;;;;;;;;5078751;28;31562;-77
2021/05/08 05:15:34;;;;;;;;;;;;;;;;;;5080031;28;32534;-78
2021/05/08 05:17:59;;;;;;;;;;;;;;;;;;5078712;28;33499;-78
2021/05/08 05:20:25;;;;;;;;;;;;;;;;;;5080077;28;33276;-78
2021/05/08 05:22:51;;;;;;;;;;;;;;;;;;5079960;28;32766;-73
2021/05/08 05:25:16;;;;;;;;;;;;;;;;;;5080735;28;32445;-79
2021/05/08 05:27:42;;;;;;;;;;;;;;;;;;5095069;28;32764;-79
2021/05/08 05:30:08;;;;;;;;;;;;;;;;;;5080596;28;32583;-77
2021/05/08 05:32:33;;;;;;;;;;;;;;;;;;5079367;28;32424;-74
2021/05/08 05:34:59;;;;;;;;;;;;;;;;;;5079263;28;32449;-74
2021/05/08 05:37:26;;;;;;;;;;;;;;;;;;5080668;28;32856;-74
2021/05/08 05:39:51;;;;;;;;;;;;;;;;;;5080110;28;32610;-74
2021/05/08 05:42:17;;;;;;;;;;;;;;;;;;5079831;28;31672;-74
2021/05/08 05:44:42;;;;;;;;;;;;;;;;;;5080924;28;32367;-74
2021/05/08 05:47:20;;;;;;;;;;;;;;;;;;5081002;28;32867;-74
2021/05/08 05:49:46;;;;;;;;;;;;;;;;;;5077558;28;33512;-74
2021/05/08 05:52:11;;;;;;;;;;;;;;;;;;5080914;28;31790;-73
2021/05/08 05:54:37;;;;;;;;;;;;;;;;;;5079751;28;32899;-74
2021/05/08 05:57:02;;;;;;;;;;;;;;;;;;5083266;28;32764;-74
2021/05/08 05:59:28;;;;;;;;;;;;;;;;;;5084644;28;32543;-75
2021/05/08 06:01:53;;;;;;;;;;;;;;;;;;5064111;28;580974;-76
2021/05/08 06:04:19;;;;;;;;;;;;;;;;;;5084511;28;32479;-77
2021/05/08 06:06:44;;;;;;;;;;;;;;;;;;5101253;28;33030;-78
2021/05/08 06:09:10;;;;;;;;;;;;;;;;;;5085465;28;33489;-77
2021/05/08 06:11:35;;;;;;;;;;;;;;;;;;5085554;28;32021;-77
2021/05/08 06:14:01;;;;;;;;;;;;;;;;;;5085552;28;32298;-77
2021/05/08 06:16:26;;;;;;;;;;;;;;;;;;5084519;28;32767;-76
2021/05/08 06:18:52;;;;;;;;;;;;;;;;;;5084188;28;33449;-77
2021/05/08 06:21:17;;;;;;;;;;;;;;;;;;5084238;28;31890;-78
2021/05/08 06:23:43;;;;;;;;;;;;;;;;;;5085625;28;32246;-78
2021/05/08 06:26:08;;;;;;;;;;;;;;;;;;5085374;28;32814;-73
2021/05/08 06:28:34;;;;;;;;;;;;;;;;;;5085204;28;33061;-77
2021/05/08 06:30:59;;;;;;;;;;;;;;;;;;5099798;28;31595;-73
2021/05/08 06:33:25;;;;;;;;;;;;;;;;;;5085259;28;32288;-77
2021/05/08 06:35:50;;;;;;;;;;;;;;;;;;5083171;28;31722;-77
2021/05/08 06:38:15;;;;;;;;;;;;;;;;;;5083915;28;32494;-77
2021/05/08 06:40:41;;;;;;;;;;;;;;;;;;5100537;28;31811;-77
2021/05/08 06:43:06;;;;;;;;;;;;;;;;;;5084140;28;33234;-77
2021/05/08 06:45:32;;;;;;;;;;;;;;;;;;5084552;28;32720;-77
2021/05/08 06:47:57;;;;;;;;;;;;;;;;;;5085692;28;32466;-78
2021/05/08 06:50:23;;;;;;;;;;;;;;;;;;5087224;28;31840;-79
2021/05/08 06:52:48;;;;;;;;;;;;;;;;;;5088082;28;32462;-77
2021/05/08 06:55:14;;;;;;;;;;;;;;;;;;5083104;28;32142;-77
2021/05/08 06:57:39;;;;;;;;;;;;;;;;;;5084715;28;33124;-77
2021/05/08 07:00:05;;;;;;;;;;;;;;;;;;5082993;28;31650;-77
2021/05/08 07:02:30;;;;;;;;;;;;;;;;;;5083389;28;32447;-77
2021/05/08 07:04:56;;;;;;;;;;;;;;;;;;5084582;28;32793;-74
2021/05/08 07:07:21;;;;;;;;;;;;;;;;;;5084076;28;32546;-74
2021/05/08 07:09:47;;;;;;;;;;;;;;;;;;5084314;28;31891;-73
2021/05/08 07:12:12;;;;;;;;;;;;;;;;;;5084324;28;32493;-72
2021/05/08 07:14:37;;;;;;;;;;;;;;;;;;5083065;28;32684;-76
2021/05/08 07:17:03;;;;;;;;;;;;;;;;;;5083135;28;32629;-73
2021/05/08 07:19:28;;;;;;;;;;;;;;;;;;5083970;28;32327;-75
2021/05/08 07:21:54;;;;;;;;;;;;;;;;;;5082974;28;33331;-74
2021/05/08 07:24:20;;;;;;;;;;;;;;;;;;5081931;28;31393;-73
2021/05/08 07:26:45;;;;;;;;;;;;;;;;;;5083258;28;33490;-74
2021/05/08 07:29:11;;;;;;;;;;;;;;;;;;5083752;28;31830;-73
2021/05/08 07:31:36;;;;;;;;;;;;;;;;;;5083841;28;34279;-74
2021/05/08 07:34:02;;;;;;;;;;;;;;;;;;5083985;28;33760;-73
2021/05/08 07:36:28;;;;;;;;;;;;;;;;;;5084124;28;32565;-73
2021/05/08 07:38:56;;;;;;;;;;;;;;;;;;5082518;28;32695;-74
2021/05/08 07:41:21;;;;;;;;;;;;;;;;;;5083782;28;32270;-76
2021/05/08 07:43:47;;;;;;;;;;;;;;;;;;5081600;28;32436;-77
2021/05/08 07:46:12;;;;;;;;;;;;;;;;;;5083769;28;32650;-78
2021/05/08 07:48:38;;;;;;;;;;;;;;;;;;5082736;28;31737;-76
2021/05/08 07:51:03;;;;;;;;;;;;;;;;;;5082582;28;33289;-78
2021/05/08 07:53:30;;;;;;;;;;;;;;;;;;5082409;28;32907;-77
2021/05/08 07:55:55;;;;;;;;;;;;;;;;;;5083240;28;32639;-77
2021/05/08 07:58:21;;;;;;;;;;;;;;;;;;5083705;28;31578;-77
2021/05/08 08:00:46;;;;;;;;;;;;;;;;;;5082991;28;32309;-77
2021/05/08 08:03:11;;;;;;;;;;;;;;;;;;5083598;28;32938;-77
2021/05/08 08:05:37;;;;;;;;;;;;;;;;;;5082651;28;33156;-77
2021/05/08 08:08:02;;;;;;;;;;;;;;;;;;5083639;28;31783;-77
2021/05/08 08:10:28;;;;;;;;;;;;;;;;;;5082432;28;32439;-77
2021/05/08 08:12:53;;;;;;;;;;;;;;;;;;5082914;28;32680;-77
2021/05/08 08:15:19;;;;;;;;;;;;;;;;;;5083043;28;32343;-77
2021/05/08 08:17:44;;;;;;;;;;;;;;;;;;5082894;28;32368;-77
2021/05/08 08:20:10;;;;;;;;;;;;;;;;;;5097515;28;32230;-77
2021/05/08 08:22:35;;;;;;;;;;;;;;;;;;5082357;28;33677;-77
2021/05/08 08:25:01;;;;;;;;;;;;;;;;;;5083207;28;32426;-77
2021/05/08 08:27:26;;;;;;;;;;;;;;;;;;5083031;28;31938;-77
2021/05/08 08:29:52;;;;;;;;;;;;;;;;;;5082408;28;32870;-77
2021/05/08 08:32:17;;;;;;;;;;;;;;;;;;5082197;28;32894;-77
2021/05/08 08:34:43;;;;;;;;;;;;;;;;;;5082285;28;32645;-77
2021/05/08 08:37:08;;;;;;;;;;;;;;;;;;5082958;28;32740;-78
2021/05/08 08:39:34;;;;;;;;;;;;;;;;;;5082345;28;32335;-77
2021/05/08 08:41:59;;;;;;;;;;;;;;;;;;5081932;28;32844;-77
2021/05/08 08:44:25;;;;;;;;;;;;;;;;;;5082890;28;32476;-78
2021/05/08 08:46:51;;;;;;;;;;;;;;;;;;5081046;28;29993;-77
2021/05/08 08:49:17;;;;;;;;;;;;;;;;;;5083979;28;33295;-74
2021/05/08 08:51:42;;;;;;;;;;;;;;;;;;5086509;28;32817;-77
2021/05/08 08:54:08;;;;;;;;;;;;;;;;;;5080425;28;32183;-78
2021/05/08 08:56:33;;;;;;;;;;;;;;;;;;5082730;28;31937;-73
2021/05/08 08:59:02;;;;;;;;;;;;;;;;;;5082479;28;36857;-75
2021/05/08 09:01:27;;;;;;;;;;;;;;;;;;5084719;28;32720;-76
2021/05/08 09:03:53;;;;;;;;;;;;;;;;;;5083694;28;31649;-74
2021/05/08 09:06:18;;;;;;;;;;;;;;;;;;5082338;28;32055;-74
2021/05/08 09:08:44;;;;;;;;;;;;;;;;;;5081290;28;32264;-74
2021/05/08 09:11:09;;;;;;;;;;;;;;;;;;5081341;28;33896;-74
2021/05/08 09:13:35;;;;;;;;;;;;;;;;;;5082467;28;32603;-71
2021/05/08 09:16:00;;;;;;;;;;;;;;;;;;5082427;28;31834;-75
2021/05/08 09:18:26;;;;;;;;;;;;;;;;;;5082408;28;32822;-74
2021/05/08 09:20:51;;;;;;;;;;;;;;;;;;5080650;28;30709;-73
2021/05/08 09:23:17;;;;;;;;;;;;;;;;;;5081389;28;32560;-72
2021/05/08 09:25:42;;;;;;;;;;;;;;;;;;5082272;28;31878;-73
2021/05/08 09:28:08;;;;;;;;;;;;;;;;;;5082227;28;32901;-73
2021/05/08 09:30:33;;;;;;;;;;;;;;;;;;5084338;28;33907;-73
2021/05/08 09:32:59;;;;;;;;;;;;;;;;;;5085946;28;32503;-74
2021/05/08 09:35:24;;;;;;;;;;;;;;;;;;5085823;28;31736;-72
2021/05/08 09:37:50;;;;;;;;;;;;;;;;;;5083955;28;32159;-74
2021/05/08 09:40:16;;;;;;;;;;;;;;;;;;5085793;28;33467;-74
2021/05/08 09:42:41;;;;;;;;;;;;;;;;;;5086104;28;32741;-73
2021/05/08 09:45:06;;;;;;;;;;;;;;;;;;5084717;28;31820;-73
2021/05/08 09:47:32;;;;;;;;;;;;;;;;;;5085628;28;33220;-73
2021/05/08 09:49:57;;;;;;;;;;;;;;;;;;5085692;28;33422;-73
2021/05/08 09:52:23;;;;;;;;;;;;;;;;;;5085685;28;32676;-73
2021/05/08 09:54:48;;;;;;;;;;;;;;;;;;5085006;28;31859;-72
2021/05/08 09:57:14;;;;;;;;;;;;;;;;;;5085566;28;32271;-73
2021/05/08 09:59:41;;;;;;;;;;;;;;;;;;5084730;28;33920;-72
2021/05/08 10:02:06;;;;;;;;;;;;;;;;;;5085036;28;32464;-73
2021/05/08 10:04:32;;;;;;;;;;;;;;;;;;5085614;28;31785;-72
2021/05/08 10:06:57;;;;;;;;;;;;;;;;;;5084679;28;33405;-72
2021/05/08 10:09:23;;;;;;;;;;;;;;;;;;5084258;28;32931;-73
2021/05/08 10:11:48;;;;;;;;;;;;;;;;;;5084828;28;33480;-76
2021/05/08 10:14:14;;;;;;;;;;;;;;;;;;5084409;28;31950;-77
2021/05/08 10:16:39;;;;;;;;;;;;;;;;;;5085442;28;32258;-76
2021/05/08 10:19:05;;;;;;;;;;;;;;;;;;5084272;28;33787;-77
2021/05/08 10:21:30;;;;;;;;;;;;;;;;;;5085316;28;32587;-76
2021/05/08 10:23:56;;;;;;;;;;;;;;;;;;5085223;28;31787;-76
2021/05/08 10:26:21;;;;;;;;;;;;;;;;;;5084272;28;32563;-76
2021/05/08 10:28:46;;;;;;;;;;;;;;;;;;5085044;28;32759;-76
2021/05/08 10:31:12;;;;;;;;;;;;;;;;;;5085152;28;33003;-76
2021/05/08 10:33:37;;;;;;;;;;;;;;;;;;5084316;28;31638;-76
2021/05/08 10:36:03;;;;;;;;;;;;;;;;;;5084904;28;33259;-76
2021/05/08 10:38:34;;;;;;;;;;;;;;;;;;5084407;28;32911;-76
2021/05/08 10:41:02;;;;;;;;;;;;;;;;;;5084530;28;32536;-76
2021/05/08 10:43:27;;;;;;;;;;;;;;;;;;5084765;28;31914;-76
2021/05/08 10:45:53;;;;;;;;;;;;;;;;;;5084091;28;32208;-76
2021/05/08 10:48:18;;;;;;;;;;;;;;;;;;5085537;28;33003;-76
2021/05/08 10:50:47;;;;;;;;;;;;;;;;;;5085350;28;32225;-76
2021/05/08 10:53:12;;;;;;;;;;;;;;;;;;5085148;28;31824;-76
2021/05/08 10:55:38;;;;;;;;;;;;;;;;;;5084618;28;32329;-76
2021/05/08 10:58:03;;;;;;;;;;;;;;;;;;5085310;28;32785;-76
2021/05/08 11:00:30;;;;;;;;;;;;;;;;;;5084790;28;32547;-77
2021/05/08 11:02:56;;;;;;;;;;;;;;;;;;5086027;28;31905;-76
2021/05/08 11:05:21;;;;;;;;;;;;;;;;;;5085732;28;32192;-76
2021/05/08 11:07:47;;;;;;;;;;;;;;;;;;5087136;28;32618;-77
2021/05/08 11:10:12;;;;;;;;;;;;;;;;;;5092395;28;32673;-76
2021/05/08 11:12:38;;;;;;;;;;;;;;;;;;5090730;28;31753;-76
2021/05/08 11:15:03;;;;;;;;;;;;;;;;;;5086740;28;33056;-77
2021/05/08 11:17:29;;;;;;;;;;;;;;;;;;5084840;28;32739;-75
2021/05/08 11:19:54;;;;;;;;;;;;;;;;;;5083367;28;32640;-76
2021/05/08 11:22:20;;;;;;;;;;;;;;;;;;5084726;28;31774;-76
2021/05/08 11:24:48;;;;;;;;;;;;;;;;;;5084616;28;32654;-76
2021/05/08 11:27:13;;;;;;;;;;;;;;;;;;5084393;28;33981;-77
2021/05/08 11:29:40;;;;;;;;;;;;;;;;;;5084365;28;32733;-76
2021/05/08 11:32:06;;;;;;;;;;;;;;;;;;5085016;28;32790;-76
2021/05/08 11:34:31;;;;;;;;;;;;;;;;;;5089644;28;32288;-76
2021/05/08 11:36:57;;;;;;;;;;;;;;;;;;5084565;28;32946;-76
2021/05/08 11:39:23;;;;;;;;;;;;;;;;;;5083240;28;33039;-76
2021/05/08 11:41:48;;;;;;;;;;;;;;;;;;5084115;28;31878;-76
2021/05/08 11:44:14;;;;;;;;;;;;;;;;;;5082782;28;32340;-76
2021/05/08 11:46:39;;;;;;;;;;;;;;;;;;5083250;28;32962;-77
2021/05/08 11:49:04;;;;;;;;;;;;;;;;;;5082771;28;32473;-73
2021/05/08 11:51:30;;;;;;;;;;;;;;;;;;5083986;28;31779;-74
2021/05/08 11:53:55;;;;;;;;;;;;;;;;;;5081542;28;32417;-73
2021/05/08 11:56:21;;;;;;;;;;;;;;;;;;5082777;28;33008;-73
2021/05/08 11:58:46;;;;;;;;;;;;;;;;;;5083782;28;32675;-73
2021/05/08 12:01:12;;;;;;;;;;;;;;;;;;5082525;28;31854;-74
2021/05/08 12:03:37;;;;;;;;;;;;;;;;;;5083730;28;32272;-74
2021/05/08 12:06:03;;;;;;;;;;;;;;;;;;5083587;28;32932;-73
2021/05/08 12:08:28;;;;;;;;;;;;;;;;;;5083623;28;32587;-73
2021/05/08 12:10:54;;;;;;;;;;;;;;;;;;5083523;28;31756;-74
2021/05/08 12:13:19;;;;;;;;;;;;;;;;;;5083060;28;33132;-74
2021/05/08 12:15:47;;;;;;;;;;;;;;;;;;5083426;28;32887;-72
2021/05/08 12:18:12;;;;;;;;;;;;;;;;;;5083423;28;32566;-74
2021/05/08 12:20:37;;;;;;;;;;;;;;;;;;5083176;28;31941;-73
2021/05/08 12:23:04;;;;;;;;;;;;;;;;;;5083508;28;32215;-73
2021/05/08 12:25:30;;;;;;;;;;;;;;;;;;5082830;28;33788;-73
2021/05/08 12:27:55;;;;;;;;;;;;;;;;;;5083327;28;32337;-73
2021/05/08 12:30:21;;;;;;;;;;;;;;;;;;5083191;28;33781;-73
2021/05/08 12:32:46;;;;;;;;;;;;;;;;;;5082287;28;32993;-72
2021/05/08 12:35:14;;;;;;;;;;;;;;;;;;5083164;28;32900;-74
2021/05/08 12:37:39;;;;;;;;;;;;;;;;;;5082587;28;32338;-73
2021/05/08 12:40:05;;;;;;;;;;;;;;;;;;5082414;28;32463;-72
2021/05/08 12:42:30;;;;;;;;;;;;;;;;;;5083162;28;32362;-73
2021/05/08 12:44:56;;;;;;;;;;;;;;;;;;5079963;28;32577;-73
2021/05/08 12:47:23;;;;;;;;;;;;;;;;;;5081860;28;32602;-73
2021/05/08 12:49:49;;;;;;;;;;;;;;;;;;5081282;28;30592;-74
2021/05/08 12:52:14;;;;;;;;;;;;;;;;;;5079821;28;32356;-74
2021/05/08 12:54:40;;;;;;;;;;;;;;;;;;5082896;28;32711;-73
2021/05/08 12:57:05;;;;;;;;;;;;;;;;;;5081711;28;33542;-76
2021/05/08 12:59:31;;;;;;;;;;;;;;;;;;5081763;28;31790;-73
2021/05/08 13:01:56;;;;;;;;;;;;;;;;;;5080696;28;32655;-73
2021/05/08 13:04:21;;;;;;;;;;;;;;;;;;5081702;28;32731;-73
2021/05/08 13:06:47;;;;;;;;;;;;;;;;;;5079627;28;33142;-73
2021/05/08 13:09:12;;;;;;;;;;;;;;;;;;5079579;28;31775;-76
2021/05/08 13:11:39;;;;;;;;;;;;;;;;;;5079445;28;32080;-77
2021/05/08 13:14:04;;;;;;;;;;;;;;;;;;5082065;28;33484;-77
2021/05/08 13:16:30;;;;;;;;;;;;;;;;;;5081716;28;32443;-78
2021/05/08 13:18:56;;;;;;;;;;;;;;;;;;5081542;28;31796;-77
2021/05/08 13:21:22;;;;;;;;;;;;;;;;;;5082571;28;32235;-76
2021/05/08 13:23:47;;;;;;;;;;;;;;;;;;5082645;28;33027;-76
2021/05/08 13:26:12;;;;;;;;;;;;;;;;;;5081666;28;32422;-76
2021/05/08 13:28:38;;;;;;;;;;;;;;;;;;5097543;28;32750;-76
2021/05/08 13:31:03;;;;;;;;;;;;;;;;;;5097310;28;32523;-76
2021/05/08 13:33:29;;;;;;;;;;;;;;;;;;5081568;28;32841;-76
2021/05/08 13:35:54;;;;;;;;;;;;;;;;;;5082535;28;32525;-75
2021/05/08 13:38:20;;;;;;;;;;;;;;;;;;5081551;28;31993;-76
2021/05/08 13:40:46;;;;;;;;;;;;;;;;;;5081191;28;32007;-76
2021/05/08 13:43:12;;;;;;;;;;;;;;;;;;5081894;28;32800;-76
2021/05/08 13:45:37;;;;;;;;;;;;;;;;;;5081588;28;32534;-76
2021/05/08 13:48:03;;;;;;;;;;;;;;;;;;5082429;28;31873;-77
2021/05/08 13:50:28;;;;;;;;;;;;;;;;;;5081255;28;33347;-75
2021/05/08 13:52:54;;;;;;;;;;;;;;;;;;5081652;28;32988;-76
2021/05/08 13:55:21;;;;;;;;;;;;;;;;;;5082099;28;32593;-76
2021/05/08 13:57:46;;;;;;;;;;;;;;;;;;5081335;28;31768;-77
2021/05/08 14:00:12;;;;;;;;;;;;;;;;;;5082056;28;32286;-74
2021/05/08 14:02:37;;;;;;;;;;;;;;;;;;5078782;28;33523;-77
2021/05/08 14:05:02;;;;;;;;;;;;;;;;;;5081530;28;32512;-77
2021/05/08 14:07:28;;;;;;;;;;;;;;;;;;5081278;28;31767;-77
2021/05/08 14:09:54;;;;;;;;;;;;;;;;;;5082099;28;32878;-75
2021/05/08 14:12:19;;;;;;;;;;;;;;;;;;5081445;28;32927;-76
2021/05/08 14:14:45;;;;;;;;;;;;;;;;;;5082007;28;32451;-77
2021/05/08 14:17:10;;;;;;;;;;;;;;;;;;5083638;28;31860;-76
2021/05/08 14:19:36;;;;;;;;;;;;;;;;;;5085176;28;32187;-75
2021/05/08 14:22:01;;;;;;;;;;;;;;;;;;5084242;28;32869;-76
2021/05/08 14:24:27;;;;;;;;;;;;;;;;;;5084668;28;33460;-76
2021/05/08 14:26:52;;;;;;;;;;;;;;;;;;5084227;28;31867;-74
2021/05/08 14:29:18;;;;;;;;;;;;;;;;;;5084422;28;33214;-74
2021/05/08 14:31:43;;;;;;;;;;;;;;;;;;5084213;28;32964;-75
2021/05/08 14:34:08;;;;;;;;;;;;;;;;;;5085258;28;33354;-74
2021/05/08 14:36:34;;;;;;;;;;;;;;;;;;5085198;28;31979;-73
2021/05/08 14:38:59;;;;;;;;;;;;;;;;;;5084318;28;32941;-75
2021/05/08 14:41:25;;;;;;;;;;;;;;;;;;5083169;28;33482;-75
2021/05/08 14:43:50;;;;;;;;;;;;;;;;;;5084126;28;32678;-73
2021/05/08 14:46:16;;;;;;;;;;;;;;;;;;5084467;28;31778;-73
2021/05/08 14:48:41;;;;;;;;;;;;;;;;;;5084793;28;36738;-70
2021/05/08 14:51:07;;;;;;;;;;;;;;;;;;5083906;28;33923;-71
2021/05/08 14:53:32;;;;;;;;;;;;;;;;;;5084839;28;32413;-73
2021/05/08 14:56:02;;;;;;;;;;;;;;;;;;5084136;28;32806;-73
2021/05/08 14:58:27;;;;;;;;;;;;;;;;;;5084165;28;33305;-73
2021/05/08 15:00:53;;;;;;;;;;;;;;;;;;5084501;28;32787;-73
2021/05/08 15:03:18;;;;;;;;;;;;;;;;;;5084740;28;32643;-74
2021/05/08 15:05:44;;;;;;;;;;;;;;;;;;5084541;28;31782;-72
2021/05/08 15:08:10;;;;;;;;;;;;;;;;;;5084601;28;32345;-72
2021/05/08 15:10:35;;;;;;;;;;;;;;;;;;5083561;28;32891;-72
2021/05/08 15:13:01;;;;;;;;;;;;;;;;;;5083839;28;32440;-73
2021/05/08 15:15:26;;;;;;;;;;;;;;;;;;5083369;28;32822;-72
2021/05/08 15:17:51;;;;;;;;;;;;;;;;;;5083875;28;32173;-73
2021/05/08 15:20:18;;;;;;;;;;;;;;;;;;5083252;28;32825;-73
2021/05/08 15:22:43;;;;;;;;;;;;;;;;;;5084426;28;32581;-74
2021/05/08 15:25:08;;;;;;;;;;;;;;;;;;5088657;28;32712;-73
2021/05/08 15:27:34;;;;;;;;;;;;;;;;;;5092962;28;32375;-72
2021/05/08 15:30:00;;;;;;;;;;;;;;;;;;5086603;28;33977;-72
2021/05/08 15:32:25;;;;;;;;;;;;;;;;;;5084399;28;32606;-73
2021/05/08 15:34:51;;;;;;;;;;;;;;;;;;5083490;28;31832;-72
2021/05/08 15:37:17;;;;;;;;;;;;;;;;;;5083156;28;33332;-73
2021/05/08 15:39:42;;;;;;;;;;;;;;;;;;5099169;28;33835;-74
2021/05/08 15:42:08;;;;;;;;;;;;;;;;;;5084190;28;32591;-74
2021/05/08 15:44:33;;;;;;;;;;;;;;;;;;5084099;28;31568;-72
2021/05/08 15:46:59;;;;;;;;;;;;;;;;;;5084076;28;32919;-75
2021/05/08 15:49:24;;;;;;;;;;;;;;;;;;5083892;28;32971;-72
2021/05/08 15:51:50;;;;;;;;;;;;;;;;;;5083985;28;32451;-73
2021/05/08 15:54:15;;;;;;;;;;;;;;;;;;5099640;28;32418;-73
2021/05/08 15:56:41;;;;;;;;;;;;;;;;;;5082647;28;32260;-72
2021/05/08 15:59:06;;;;;;;;;;;;;;;;;;5083795;28;33791;-73
2021/05/08 16:01:32;;;;;;;;;;;;;;;;;;5083644;28;33037;-72
2021/05/08 16:03:57;;;;;;;;;;;;;;;;;;5083186;28;31895;-73
2021/05/08 16:06:23;;;;;;;;;;;;;;;;;;5083850;28;32068;-73
2021/05/08 16:08:48;;;;;;;;;;;;;;;;;;5082818;28;33543;-73
2021/05/08 16:11:14;;;;;;;;;;;;;;;;;;5083587;28;32457;-74
2021/05/08 16:13:39;;;;;;;;;;;;;;;;;;5083751;28;31825;-74
2021/05/08 16:16:05;;;;;;;;;;;;;;;;;;5082919;28;32147;-71
2021/05/08 16:18:30;;;;;;;;;;;;;;;;;;5083165;28;33489;-74
2021/05/08 16:20:56;;;;;;;;;;;;;;;;;;5083495;28;32561;-72
2021/05/08 16:23:21;;;;;;;;;;;;;;;;;;5082300;28;31906;-74
2021/05/08 16:25:47;;;;;;;;;;;;;;;;;;5083444;28;33192;-72
2021/05/08 16:28:12;;;;;;;;;;;;;;;;;;5083459;28;32917;-72
2021/05/08 16:30:38;;;;;;;;;;;;;;;;;;5082237;28;32384;-73
2021/05/08 16:33:03;;;;;;;;;;;;;;;;;;5083358;28;31700;-73
2021/05/08 16:35:28;;;;;;;;;;;;;;;;;;5082979;28;32428;-72